This is the latest recevied weather packets stored in our database for station/object N8GD. If no packets are shown the sender has not sent any weather packets the latest 1 day(s).
| Time | Temp. | Humidity | Pressure | Rain* | Wind** | Luminosity | Snow |
|---|---|---|---|---|---|---|---|
| 1836274387 | 20° C | 78% | 1019.3 hPa | 0 mm | 2.68 m/s, 46° | - | - |
| 1836274237 | 20° C | 78% | 1019.3 hPa | 0 mm | 0 m/s | - | - |
| 1778043629 | 14.44° C | 92% | 1007.1 hPa | 1.02 mm | 0 m/s | - | - |
| 1778043162 | 14.44° C | 92% | 1007.3 hPa | 1.02 mm | 0 m/s | - | - |
| 1778043105 | 14.44° C | 92% | 1007.3 hPa | 1.27 mm | 0 m/s | - | - |
| 1778042262 | 14.44° C | 91% | 1007.5 hPa | 1.02 mm | 0 m/s | - | - |
| 1778041364 | 15° C | 91% | 1007.5 hPa | 0.76 mm | 0 m/s | - | - |
| 1778041305 | 15° C | 91% | 1007.5 hPa | 0.51 mm | 0 m/s | - | - |
| 1778040462 | 15° C | 90% | 1007.7 hPa | 0.25 mm | 0 m/s | - | - |
| 1778040411 | 15° C | 90% | 1007.7 hPa | 0.25 mm | 0 m/s | - | - |
| 1778039564 | 15° C | 89% | 1007.6 hPa | 0.25 mm | 0 m/s | - | - |
| 1778039506 | 15° C | 89% | 1007.6 hPa | 0 mm | 0 m/s | - | - |
| 1778038662 | 15.56° C | 86% | 1007.4 hPa | 0 mm | 0 m/s | - | - |
| 1778037762 | 16.11° C | 84% | 1007.3 hPa | 0 mm | 0 m/s | - | - |
| 1778036862 | 16.11° C | 82% | 1007.1 hPa | 0 mm | 0 m/s | - | - |
| 1778035963 | 16.67° C | 80% | 1007.4 hPa | 0 mm | 0 m/s | - | - |
| 1778035904 | 16.67° C | 80% | 1007.4 hPa | 0 mm | 0 m/s | - | - |
| 1778035063 | 16.67° C | 78% | 1007 hPa | 0 mm | 0 m/s | - | - |
| 1778034162 | 17.22° C | 75% | 1007.1 hPa | 0 mm | 0.45 m/s, 280° | - | - |
| 1778034103 | 17.22° C | 75% | 1007.1 hPa | 0 mm | 0.45 m/s, 280° | - | - |
| 1778033263 | 17.78° C | 74% | 1007 hPa | 0 mm | 0 m/s | - | - |
| 1778032373 | 18.89° C | 64% | 1006.9 hPa | 0 mm | 0 m/s | - | - |
| 1778031463 | 19.44° C | 59% | 1006.7 hPa | 0 mm | 0 m/s | - | - |
| 1778030562 | 19.44° C | 59% | 1006.6 hPa | 0 mm | 0.45 m/s, 250° | - | - |
| 1778029663 | 19.44° C | 57% | 1006.5 hPa | 0 mm | 0.45 m/s, 234° | - | - |
* Rain latest hour (hover to see other rain measurements)
** Current wind speed in m/s (hover to see current wind gust speed)